createdAt,value
2023-03-05T00:00:02.056Z,100910.03
2023-03-05T00:02:29.881Z,100914.66
2023-03-05T00:04:57.644Z,100918.25
2023-03-05T00:07:25.417Z,100912.19
2023-03-05T00:09:53.130Z,100906.22
2023-03-05T00:12:20.931Z,100909.91
2023-03-05T00:14:50.031Z,100905.59
2023-03-05T00:17:17.823Z,100906.69
2023-03-05T00:19:45.581Z,100911.19
2023-03-05T00:22:13.339Z,100906.78
2023-03-05T00:24:41.058Z,100895.38
2023-03-05T00:27:08.847Z,100898.94
2023-03-05T00:29:36.623Z,100901.56
2023-03-05T00:32:05.982Z,100895.38
2023-03-05T00:34:33.770Z,100900.63
2023-03-05T00:37:01.673Z,100884.78
2023-03-05T00:39:29.504Z,100892.50
2023-03-05T00:41:58.035Z,100881.81
2023-03-05T00:44:25.836Z,100886.31
2023-03-05T00:46:53.591Z,100878.47
2023-03-05T00:49:22.732Z,100876.94
2023-03-05T00:51:50.460Z,100864.91
2023-03-05T00:54:18.315Z,100870.97
2023-03-05T00:56:46.461Z,100869.41
2023-03-05T00:59:14.215Z,100863.22
2023-03-05T01:01:41.973Z,100859.88
2023-03-05T01:04:10.188Z,100854.41
2023-03-05T01:06:42.712Z,100856.31
2023-03-05T01:09:10.466Z,100851.91
2023-03-05T01:11:38.587Z,100846.66
2023-03-05T01:14:06.332Z,100841.44
2023-03-05T01:16:34.145Z,100837.03
2023-03-05T01:19:01.884Z,100841.22
2023-03-05T01:21:29.696Z,100835.88
2023-03-05T01:23:58.873Z,100827.16
2023-03-05T01:26:26.768Z,100824.41
2023-03-05T01:28:55.065Z,100833.94
2023-03-05T01:31:23.251Z,100821.09
2023-03-05T01:33:53.065Z,100819.53
2023-03-05T01:36:21.675Z,100822.25
2023-03-05T01:38:49.443Z,100824.88
2023-03-05T01:41:19.907Z,100810.13
2023-03-05T01:43:49.665Z,100806.81
2023-03-05T01:46:32.403Z,100799.16
2023-03-05T01:49:05.464Z,100804.75
2023-03-05T01:51:38.030Z,100798.81
2023-03-05T01:54:08.404Z,100788.69
2023-03-05T01:56:39.510Z,100789.75
2023-03-05T01:59:07.340Z,100783.69
2023-03-05T02:01:40.648Z,100773.44
2023-03-05T02:04:10.272Z,100772.72
2023-03-05T02:06:39.586Z,100785.09
2023-03-05T02:09:07.540Z,100776.41
2023-03-05T02:11:36.990Z,100779.13
2023-03-05T02:14:09.860Z,100771.53
2023-03-05T02:16:39.168Z,100770.69
2023-03-05T02:19:09.781Z,100755.22
2023-03-05T02:21:41.505Z,100764.00
2023-03-05T02:24:12.983Z,100757.25
2023-03-05T02:26:42.991Z,100756.25
2023-03-05T02:29:14.100Z,100748.56
2023-03-05T02:31:43.111Z,100753.06
2023-03-05T02:34:10.937Z,100752.13
2023-03-05T02:36:40.096Z,100752.00
2023-03-05T02:39:09.645Z,100741.75
2023-03-05T02:41:37.618Z,100742.69
2023-03-05T02:44:05.901Z,100735.91
2023-03-05T02:46:33.696Z,100733.19
2023-03-05T02:49:01.816Z,100734.13
2023-03-05T02:51:29.631Z,100733.53
2023-03-05T02:53:59.152Z,100735.44
2023-03-05T02:56:28.488Z,100730.19
2023-03-05T02:58:56.283Z,100720.47
2023-03-05T03:01:24.246Z,100718.69
2023-03-05T03:03:52.024Z,100716.16
2023-03-05T03:06:19.824Z,100718.06
2023-03-05T03:08:47.579Z,100710.94
2023-03-05T03:11:17.589Z,100704.75
2023-03-05T03:13:45.424Z,100704.88
2023-03-05T03:16:15.557Z,100704.16
2023-03-05T03:18:44.078Z,100703.19
2023-03-05T03:21:18.718Z,100701.41
2023-03-05T03:23:46.676Z,100696.91
2023-03-05T03:26:15.764Z,100693.34
2023-03-05T03:28:43.673Z,100684.56
2023-03-05T03:31:11.579Z,100682.88
2023-03-05T03:33:39.413Z,100684.41
2023-03-05T03:36:07.950Z,100678.00
2023-03-05T03:38:35.815Z,100677.75
2023-03-05T03:41:03.687Z,100674.44
2023-03-05T03:43:32.808Z,100678.84
2023-03-05T03:46:00.687Z,100670.38
2023-03-05T03:48:28.442Z,100671.22
2023-03-05T03:50:56.158Z,100668.72
2023-03-05T03:53:23.879Z,100661.00
2023-03-05T03:55:51.760Z,100659.19
2023-03-05T03:58:19.529Z,100654.78
2023-03-05T04:00:48.665Z,100659.81
2023-03-05T04:03:16.388Z,100657.06
2023-03-05T04:05:44.167Z,100658.75
2023-03-05T04:08:12.649Z,100652.56
2023-03-05T04:10:40.539Z,100659.31
2023-03-05T04:13:08.656Z,100650.63
2023-03-05T04:15:36.558Z,100649.09
2023-03-05T04:18:05.877Z,100631.75
2023-03-05T04:20:33.693Z,100634.25
2023-03-05T04:23:01.473Z,100634.34
2023-03-05T04:25:29.329Z,100630.19
2023-03-05T04:27:57.059Z,100621.59
2023-03-05T04:30:24.750Z,100624.22
2023-03-05T04:32:52.437Z,100620.78
2023-03-05T04:35:21.720Z,100616.63
2023-03-05T04:37:49.746Z,100613.50
2023-03-05T04:40:18.154Z,100613.50
2023-03-05T04:42:46.030Z,100614.50
2023-03-05T04:45:13.924Z,100616.50
2023-03-05T04:47:41.671Z,100614.09
2023-03-05T04:50:10.846Z,100612.47
2023-03-05T04:52:41.396Z,100603.91
2023-03-05T04:55:10.484Z,100611.75
2023-03-05T04:57:38.371Z,100609.97
2023-03-05T05:00:12.492Z,100602.34
2023-03-05T05:02:40.377Z,100600.44
2023-03-05T05:05:08.695Z,100600.44
2023-03-05T05:07:36.480Z,100601.66
2023-03-05T05:10:07.759Z,100598.66
2023-03-05T05:12:36.291Z,100599.03
2023-03-05T05:15:04.526Z,100593.81
2023-03-05T05:17:33.086Z,100599.16
2023-03-05T05:20:00.872Z,100604.59
2023-03-05T05:22:28.782Z,100592.34
2023-03-05T05:24:56.827Z,100590.34
2023-03-05T05:27:25.951Z,100595.31
2023-03-05T05:29:53.759Z,100596.88
2023-03-05T05:32:24.004Z,100596.88
2023-03-05T05:34:55.291Z,100596.63
2023-03-05T05:37:23.302Z,100597.47
2023-03-05T05:39:51.258Z,100585.81
2023-03-05T05:42:19.732Z,100593.78
2023-03-05T05:44:49.376Z,100596.19
2023-03-05T05:47:18.119Z,100597.69
2023-03-05T05:49:45.996Z,100599.25
2023-03-05T05:52:14.203Z,100596.38
2023-03-05T05:54:41.980Z,100596.28
2023-03-05T05:57:09.927Z,100583.81
2023-03-05T05:59:38.237Z,100591.38
2023-03-05T06:02:08.056Z,100582.59
2023-03-05T06:04:36.886Z,100585.81
2023-03-05T06:07:05.120Z,100584.97
2023-03-05T06:09:32.928Z,100582.25
2023-03-05T06:12:00.619Z,100581.53
2023-03-05T06:14:28.464Z,100585.47
2023-03-05T06:16:56.230Z,100583.31
2023-03-05T06:19:25.337Z,100587.59
2023-03-05T06:21:53.047Z,100586.66
2023-03-05T06:24:20.845Z,100590.56
2023-03-05T06:26:49.166Z,100584.25
2023-03-05T06:29:16.965Z,100584.38
2023-03-05T06:31:44.757Z,100574.63
2023-03-05T06:34:13.454Z,100579.03
2023-03-05T06:36:43.631Z,100573.31
2023-03-05T06:39:11.799Z,100582.00
2023-03-05T06:41:39.724Z,100572.09
2023-03-05T06:44:07.541Z,100570.31
2023-03-05T06:46:39.146Z,100574.38
2023-03-05T06:49:08.570Z,100569.97
2023-03-05T06:51:38.057Z,100572.31
2023-03-05T06:54:09.138Z,100566.97
2023-03-05T06:56:40.607Z,100567.78
2023-03-05T06:59:08.959Z,100562.44
2023-03-05T07:01:36.869Z,100563.84
2023-03-05T07:04:05.853Z,100564.19
2023-03-05T07:06:35.005Z,100569.06
2023-03-05T07:09:03.894Z,100571.41
2023-03-05T07:11:34.007Z,100561.75
2023-03-05T07:14:02.132Z,100558.84
2023-03-05T07:16:32.310Z,100560.56
2023-03-05T07:19:03.130Z,100559.25
2023-03-05T07:21:32.460Z,100559.25
2023-03-05T07:24:02.080Z,100562.34
2023-03-05T07:26:30.840Z,100564.00
2023-03-05T07:29:00.177Z,100554.63
2023-03-05T07:31:31.239Z,100557.56
2023-03-05T07:34:00.161Z,100555.63
2023-03-05T07:36:28.365Z,100557.78
2023-03-05T07:38:56.212Z,100559.28
2023-03-05T07:41:24.441Z,100549.91
2023-03-05T07:43:54.497Z,100549.75
2023-03-05T07:46:25.915Z,100555.16
2023-03-05T07:48:54.696Z,100551.53
2023-03-05T07:51:23.797Z,100544.72
2023-03-05T07:53:53.106Z,100537.44
2023-03-05T07:56:25.922Z,100539.28
2023-03-05T07:58:54.186Z,100538.38
2023-03-05T08:01:23.537Z,100538.44
2023-03-05T08:03:51.261Z,100535.28
2023-03-05T08:06:19.058Z,100530.22
2023-03-05T08:08:46.807Z,100537.66
2023-03-05T08:11:16.181Z,100535.75
2023-03-05T08:13:44.021Z,100534.31
2023-03-05T08:16:14.787Z,100530.22
2023-03-05T08:18:44.912Z,100526.09
2023-03-05T08:21:20.458Z,100523.63
2023-03-05T08:23:48.593Z,100523.13
2023-03-05T08:26:18.559Z,100518.13
2023-03-05T08:28:46.534Z,100519.09
2023-03-05T08:31:16.327Z,100514.81
2023-03-05T08:33:45.526Z,100518.69
2023-03-05T08:36:13.326Z,100519.50
2023-03-05T08:38:41.903Z,100512.06
2023-03-05T08:41:09.812Z,100514.81
2023-03-05T08:43:38.128Z,100520.72
2023-03-05T08:46:06.532Z,100514.38
2023-03-05T08:48:34.815Z,100520.94
2023-03-05T08:51:08.141Z,100511.34
2023-03-05T08:53:35.963Z,100517.03
2023-03-05T08:56:04.660Z,100509.69
2023-03-05T08:58:32.593Z,100505.06
2023-03-05T09:01:00.356Z,100509.13
2023-03-05T09:03:28.190Z,100510.38
2023-03-05T09:06:00.753Z,100515.25
2023-03-05T09:08:30.069Z,100503.91
2023-03-05T09:10:58.079Z,100499.47
2023-03-05T09:13:25.975Z,100496.00
2023-03-05T09:15:56.989Z,100506.25
2023-03-05T09:18:24.839Z,100496.66
2023-03-05T09:20:52.705Z,100498.47
2023-03-05T09:23:20.474Z,100493.38
2023-03-05T09:25:49.793Z,100497.78
2023-03-05T09:28:18.160Z,100492.50
2023-03-05T09:30:45.924Z,100490.13
2023-03-05T09:33:13.678Z,100483.91
2023-03-05T09:35:41.617Z,100485.81
2023-03-05T09:38:09.500Z,100487.59
2023-03-05T09:40:46.394Z,100480.53
2023-03-05T09:43:26.995Z,100477.53
2023-03-05T09:46:07.207Z,100477.66
2023-03-05T09:48:48.685Z,100472.84
2023-03-05T09:51:22.079Z,100470.75
2023-03-05T09:53:54.844Z,100470.69
2023-03-05T09:56:27.608Z,100468.84
2023-03-05T09:59:01.713Z,100465.56
2023-03-05T10:01:35.443Z,100462.44
2023-03-05T10:04:11.541Z,100461.91
2023-03-05T10:06:49.601Z,100461.56
2023-03-05T10:09:28.714Z,100458.09
2023-03-05T10:12:01.020Z,100459.59
2023-03-05T10:14:32.324Z,100457.16
2023-03-05T10:17:46.280Z,100461.41
2023-03-05T10:20:31.578Z,100456.81
2023-03-05T10:23:20.378Z,100451.06
2023-03-05T10:25:57.897Z,100458.34
2023-03-05T10:28:35.689Z,100450.16
2023-03-05T10:31:14.316Z,100445.84
2023-03-05T10:33:52.717Z,100444.75
2023-03-05T10:36:35.942Z,100438.34
2023-03-05T10:39:34.912Z,100438.44
2023-03-05T10:42:11.728Z,100431.13
2023-03-05T10:44:45.522Z,100431.22
2023-03-05T10:47:22.573Z,100423.19
2023-03-05T10:49:53.050Z,100423.44
2023-03-05T10:52:26.533Z,100429.69
2023-03-05T10:54:54.288Z,100435.50
2023-03-05T10:57:23.781Z,100432.19
2023-03-05T10:59:53.473Z,100430.69
2023-03-05T11:02:23.998Z,100430.09
2023-03-05T11:04:53.414Z,100424.31
2023-03-05T11:07:34.465Z,100417.84
2023-03-05T11:10:15.083Z,100417.31
2023-03-05T11:12:43.229Z,100410.94
2023-03-05T11:15:27.585Z,100403.06
2023-03-05T11:18:17.589Z,100399.34
2023-03-05T11:20:45.620Z,100393.22
2023-03-05T11:23:15.275Z,100400.00
2023-03-05T11:25:56.055Z,100392.09
2023-03-05T11:28:32.868Z,100393.38
2023-03-05T11:31:08.428Z,100389.06
2023-03-05T11:33:38.965Z,100385.50
2023-03-05T11:36:28.171Z,100383.53
2023-03-05T11:38:59.555Z,100374.66
2023-03-05T11:41:40.766Z,100372.50
2023-03-05T11:44:13.817Z,100382.50
2023-03-05T11:46:45.906Z,100375.44
2023-03-05T11:49:19.516Z,100366.78
2023-03-05T11:51:54.558Z,100365.94
2023-03-05T11:54:25.775Z,100364.13
2023-03-05T11:56:54.384Z,100359.75
2023-03-05T11:59:27.939Z,100350.41
2023-03-05T12:01:57.565Z,100335.97
2023-03-05T12:04:27.201Z,100344.53
2023-03-05T12:06:58.773Z,100344.84
2023-03-05T12:09:34.625Z,100337.53
2023-03-05T12:12:08.337Z,100333.88
2023-03-05T12:14:45.122Z,100325.63
2023-03-05T12:17:18.336Z,100330.06
2023-03-05T12:19:55.935Z,100313.84
2023-03-05T12:22:25.867Z,100320.31
2023-03-05T12:24:54.039Z,100313.13
2023-03-05T12:27:42.853Z,100313.47
2023-03-05T12:30:54.713Z,100307.47
2023-03-05T12:33:38.325Z,100297.63
2023-03-05T12:36:36.385Z,100296.25
2023-03-05T12:39:49.651Z,100300.94
2023-03-05T12:42:46.913Z,100294.31
2023-03-05T12:45:27.420Z,100287.75
2023-03-05T12:48:32.608Z,100288.41
2023-03-05T12:51:00.382Z,100280.16
2023-03-05T12:53:30.238Z,100277.38
2023-03-05T12:56:03.829Z,100271.91
2023-03-05T12:58:40.166Z,100266.28
2023-03-05T13:01:17.369Z,100269.78
2023-03-05T13:03:48.314Z,100260.91
2023-03-05T13:06:27.282Z,100259.53
2023-03-05T13:09:01.520Z,100253.44
2023-03-05T13:11:31.508Z,100249.84
2023-03-05T13:13:59.685Z,100241.56
2023-03-05T13:16:29.686Z,100237.59
2023-03-05T13:19:01.154Z,100239.44
2023-03-05T13:21:31.889Z,100237.66
2023-03-05T13:24:03.150Z,100225.28
2023-03-05T13:26:37.134Z,100223.97
2023-03-05T13:29:08.269Z,100209.47
2023-03-05T13:31:37.706Z,100209.47
2023-03-05T13:34:15.442Z,100205.16
2023-03-05T13:36:48.454Z,100212.09
2023-03-05T13:39:23.585Z,100201.06
2023-03-05T13:42:00.261Z,100195.56
2023-03-05T13:44:29.492Z,100199.03
2023-03-05T13:47:15.275Z,100189.31
2023-03-05T13:49:43.962Z,100196.22
2023-03-05T13:52:15.875Z,100186.34
2023-03-05T13:54:45.137Z,100191.94
2023-03-05T13:57:34.037Z,100186.84
2023-03-05T14:00:01.847Z,100183.72
2023-03-05T14:02:32.473Z,100177.94
2023-03-05T14:05:01.567Z,100172.66
2023-03-05T14:07:33.832Z,100168.19
2023-03-05T14:10:03.802Z,100173.00
2023-03-05T14:12:36.019Z,100160.94
2023-03-05T14:15:22.115Z,100162.44
2023-03-05T14:17:50.101Z,100152.72
2023-03-05T14:20:24.361Z,100147.44
2023-03-05T14:22:53.712Z,100143.63
2023-03-05T14:25:34.648Z,100135.03
2023-03-05T14:28:04.620Z,100138.81
2023-03-05T14:30:35.184Z,100130.56
2023-03-05T14:33:04.324Z,100131.22
2023-03-05T14:35:32.342Z,100126.41
2023-03-05T14:38:01.079Z,100128.69
2023-03-05T14:40:32.115Z,100120.28
2023-03-05T14:43:00.997Z,100117.78
2023-03-05T14:45:30.924Z,100109.16
2023-03-05T14:48:00.496Z,100102.72
2023-03-05T14:50:30.681Z,100105.06
2023-03-05T14:53:01.402Z,100100.09
2023-03-05T14:55:32.817Z,100103.34
2023-03-05T14:58:04.460Z,100097.06
2023-03-05T15:00:32.708Z,100092.06
2023-03-05T15:03:00.593Z,100089.97
2023-03-05T15:05:28.709Z,100084.34
2023-03-05T15:07:56.651Z,100082.81
2023-03-05T15:10:26.574Z,100076.19
2023-03-05T15:12:55.681Z,100074.19
2023-03-05T15:15:23.918Z,100071.00
2023-03-05T15:17:54.943Z,100070.66
2023-03-05T15:20:24.960Z,100066.88
2023-03-05T15:22:53.326Z,100068.44
2023-03-05T15:25:22.150Z,100068.44
2023-03-05T15:27:50.845Z,100069.69
2023-03-05T15:30:23.812Z,100063.78
2023-03-05T15:32:52.445Z,100072.97
2023-03-05T15:35:20.233Z,100071.28
2023-03-05T15:37:48.192Z,100068.13
2023-03-05T15:40:16.553Z,100060.34
2023-03-05T15:42:44.318Z,100061.31
2023-03-05T15:45:12.292Z,100063.09
2023-03-05T15:47:41.387Z,100053.28
2023-03-05T15:50:10.671Z,100057.19
2023-03-05T15:52:38.418Z,100053.66
2023-03-05T15:55:07.002Z,100051.97
2023-03-05T15:57:38.152Z,100061.88
2023-03-05T16:00:07.583Z,100051.97
2023-03-05T16:02:38.137Z,100051.47
2023-03-05T16:05:08.688Z,100046.97
2023-03-05T16:07:39.919Z,100041.31
2023-03-05T16:10:11.999Z,100038.84
2023-03-05T16:12:42.923Z,100038.84
2023-03-05T16:15:12.802Z,100042.00
2023-03-05T16:17:44.033Z,100037.03
2023-03-05T16:20:14.848Z,100032.09
2023-03-05T16:22:42.654Z,100029.31
2023-03-05T16:25:10.824Z,100029.47
2023-03-05T16:27:38.647Z,100024.66
2023-03-05T16:30:07.849Z,100018.88
2023-03-05T16:32:35.754Z,100023.47
2023-03-05T16:35:03.676Z,100013.56
2023-03-05T16:37:32.820Z,100021.44
2023-03-05T16:40:00.682Z,100020.75
2023-03-05T16:42:28.390Z,100011.38
2023-03-05T16:44:56.828Z,100017.19
2023-03-05T16:47:24.590Z,100008.66
2023-03-05T16:49:52.676Z,100015.16
2023-03-05T16:52:21.066Z,100005.25
2023-03-05T16:54:50.445Z,100005.41
2023-03-05T16:57:18.311Z,100010.13
2023-03-05T16:59:46.117Z,100006.28
2023-03-05T17:02:15.250Z,100001.47
2023-03-05T17:04:43.496Z,100003.59
2023-03-05T17:07:11.856Z,100008.97
2023-03-05T17:09:39.697Z,100006.50
2023-03-05T17:12:09.200Z,100000.56
2023-03-05T17:14:37.061Z,100002.38
2023-03-05T17:17:04.870Z,99998.09
2023-03-05T17:19:32.829Z,99988.72
2023-03-05T17:22:00.597Z,99986.09
2023-03-05T17:24:28.769Z,99991.34
2023-03-05T17:26:56.507Z,99994.78
2023-03-05T17:29:25.623Z,99992.03
2023-03-05T17:31:53.734Z,99991.34
2023-03-05T17:34:33.290Z,99994.78
2023-03-05T17:37:01.846Z,99995.91
2023-03-05T17:39:29.868Z,99991.63
2023-03-05T17:41:57.658Z,99987.22
2023-03-05T17:44:26.803Z,99987.34
2023-03-05T17:46:54.582Z,99990.28
2023-03-05T17:49:22.333Z,99984.22
2023-03-05T17:51:50.109Z,99980.91
2023-03-05T17:54:17.861Z,99983.66
2023-03-05T17:56:48.044Z,99996.25
2023-03-05T17:59:16.514Z,99989.34
2023-03-05T18:01:45.662Z,99981.63
2023-03-05T18:04:15.195Z,99984.41
2023-03-05T18:06:42.997Z,99981.13
2023-03-05T18:09:11.018Z,99980.56
2023-03-05T18:11:39.257Z,99984.28
2023-03-05T18:14:07.015Z,99981.66
2023-03-05T18:16:36.059Z,99982.81
2023-03-05T18:19:05.235Z,99975.91
2023-03-05T18:21:32.976Z,99974.38
2023-03-05T18:24:00.729Z,99977.16
2023-03-05T18:26:28.497Z,99977.47
2023-03-05T18:28:56.252Z,99968.63
2023-03-05T18:31:23.996Z,99960.19
2023-03-05T18:33:51.776Z,99962.97
2023-03-05T18:36:20.866Z,99962.13
2023-03-05T18:38:48.739Z,99962.44
2023-03-05T18:41:21.239Z,99954.03
2023-03-05T18:43:50.403Z,99953.50
2023-03-05T18:46:18.706Z,99954.34
2023-03-05T18:48:47.944Z,99945.63
2023-03-05T18:51:17.587Z,99946.31
2023-03-05T18:53:46.979Z,99946.31
2023-03-05T18:56:15.033Z,99953.19
2023-03-05T18:58:42.815Z,99950.44
2023-03-05T19:01:11.189Z,99950.28
2023-03-05T19:03:38.975Z,99944.91
2023-03-05T19:06:07.788Z,99939.81
2023-03-05T19:08:35.747Z,99945.06
2023-03-05T19:11:15.549Z,99943.25
2023-03-05T19:13:44.250Z,99938.69
2023-03-05T19:16:14.339Z,99942.28
2023-03-05T19:18:53.919Z,99937.03
2023-03-05T19:21:21.699Z,99932.75
2023-03-05T19:23:49.424Z,99931.09
2023-03-05T19:26:18.571Z,99930.28
2023-03-05T19:28:46.371Z,99924.22
2023-03-05T19:31:14.765Z,99923.38
2023-03-05T19:33:42.856Z,99927.13
2023-03-05T19:36:11.781Z,99919.94
2023-03-05T19:38:40.051Z,99918.59
2023-03-05T19:41:10.843Z,99915.13
2023-03-05T19:43:40.214Z,99914.31
2023-03-05T19:46:09.705Z,99911.69
2023-03-05T19:48:39.236Z,99911.97
2023-03-05T19:51:10.144Z,99905.91
2023-03-05T19:53:38.305Z,99904.25
2023-03-05T19:56:07.321Z,99902.47
2023-03-05T19:58:35.870Z,99905.22
2023-03-05T20:01:15.375Z,99906.88
2023-03-05T20:03:45.031Z,99902.59
2023-03-05T20:06:12.925Z,99903.56
2023-03-05T20:08:41.084Z,99895.03
2023-03-05T20:11:11.614Z,99905.38
2023-03-05T20:13:40.394Z,99900.25
2023-03-05T20:16:15.726Z,99889.91
2023-03-05T20:18:43.724Z,99894.34
2023-03-05T20:21:11.976Z,99897.25
2023-03-05T20:23:40.031Z,99886.63
2023-03-05T20:26:07.889Z,99892.97
2023-03-05T20:28:35.758Z,99891.31
2023-03-05T20:31:03.575Z,99885.41
2023-03-05T20:33:32.809Z,99887.38
2023-03-05T20:36:01.310Z,99901.44
2023-03-05T20:38:30.620Z,99890.13
2023-03-05T20:40:59.942Z,99885.03
2023-03-05T20:43:29.687Z,99884.34
2023-03-05T20:45:58.341Z,99879.09
2023-03-05T20:48:28.089Z,99875.50
2023-03-05T20:50:58.052Z,99866.97
2023-03-05T20:53:25.862Z,99870.56
2023-03-05T20:55:54.502Z,99867.13
2023-03-05T20:58:22.217Z,99856.75
2023-03-05T21:00:50.009Z,99868.09
2023-03-05T21:03:17.772Z,99863.94
2023-03-05T21:05:46.800Z,99859.66
2023-03-05T21:08:15.922Z,99845.91
2023-03-05T21:10:43.642Z,99851.16
2023-03-05T21:13:11.380Z,99842.59
2023-03-05T21:15:41.688Z,99840.94
2023-03-05T21:18:09.440Z,99824.53
2023-03-05T21:20:37.225Z,99832.56
2023-03-05T21:23:04.975Z,99828.28
2023-03-05T21:25:34.813Z,99832.84
2023-03-05T21:28:06.033Z,99825.94
2023-03-05T21:30:36.289Z,99825.25
2023-03-05T21:33:06.847Z,99822.81
2023-03-05T21:35:35.837Z,99814.94
2023-03-05T21:38:05.830Z,99814.25
2023-03-05T21:40:36.312Z,99811.78
2023-03-05T21:43:04.284Z,99798.53
2023-03-05T21:45:32.348Z,99790.94
2023-03-05T21:48:00.128Z,99790.94
2023-03-05T21:50:28.005Z,99795.53
2023-03-05T21:52:56.031Z,99793.88
2023-03-05T21:55:32.214Z,99782.44
2023-03-05T21:58:01.798Z,99784.50
2023-03-05T22:00:29.841Z,99780.09
2023-03-05T22:02:57.548Z,99778.56
2023-03-05T22:05:25.332Z,99777.59
2023-03-05T22:07:53.039Z,99769.22
2023-03-05T22:10:21.802Z,99773.47
2023-03-05T22:12:56.726Z,99762.19
2023-03-05T22:15:27.725Z,99756.28
2023-03-05T22:17:55.467Z,99756.41
2023-03-05T22:20:23.329Z,99753.09
2023-03-05T22:22:51.182Z,99751.44
2023-03-05T22:25:19.374Z,99745.69
2023-03-05T22:27:47.109Z,99747.75
2023-03-05T22:30:15.311Z,99738.28
2023-03-05T22:32:44.432Z,99744.63
2023-03-05T22:35:14.546Z,99739.66
2023-03-05T22:37:42.522Z,99734.56
2023-03-05T22:40:14.638Z,99733.22
2023-03-05T22:42:42.436Z,99728.13
2023-03-05T22:45:11.270Z,99734.31
2023-03-05T22:47:39.080Z,99730.03
2023-03-05T22:50:09.398Z,99730.34
2023-03-05T22:52:37.138Z,99720.31
2023-03-05T22:55:05.410Z,99724.03
2023-03-05T22:57:34.205Z,99714.00
2023-03-05T23:00:01.961Z,99715.41
2023-03-05T23:02:29.859Z,99710.88
2023-03-05T23:05:00.396Z,99705.41
2023-03-05T23:07:32.460Z,99701.69
2023-03-05T23:10:02.342Z,99698.00
2023-03-05T23:12:33.104Z,99703.00
2023-03-05T23:15:01.768Z,99696.53
2023-03-05T23:17:29.662Z,99692.97
2023-03-05T23:19:57.428Z,99691.88
2023-03-05T23:22:25.251Z,99690.66
2023-03-05T23:24:54.419Z,99685.00
2023-03-05T23:27:22.269Z,99686.97
2023-03-05T23:30:04.506Z,99686.28
2023-03-05T23:32:32.275Z,99675.69
2023-03-05T23:35:00.118Z,99681.34
2023-03-05T23:37:27.887Z,99692.19
2023-03-05T23:39:57.143Z,99685.06
2023-03-05T23:42:24.853Z,99675.69
2023-03-05T23:44:54.171Z,99671.59
2023-03-05T23:47:21.980Z,99678.47
2023-03-05T23:49:49.795Z,99673.25
2023-03-05T23:52:17.521Z,99674.91
2023-03-05T23:54:45.467Z,99665.09
2023-03-05T23:57:14.579Z,99671.72
2023-03-05T23:59:42.287Z,99671.84
